createdAt,value
2022-10-12T00:00:35.763Z,102356.06
2022-10-12T00:03:37.785Z,102356.13
2022-10-12T00:06:39.328Z,102355.38
2022-10-12T00:09:41.401Z,102359.91
2022-10-12T00:12:42.949Z,102356.56
2022-10-12T00:15:44.472Z,102360.19
2022-10-12T00:18:51.643Z,102369.16
2022-10-12T00:21:53.190Z,102369.34
2022-10-12T00:24:54.708Z,102365.00
2022-10-12T00:27:56.527Z,102368.72
2022-10-12T00:30:58.128Z,102360.03
2022-10-12T00:34:01.712Z,102363.72
2022-10-12T00:37:03.283Z,102360.38
2022-10-12T00:40:05.827Z,102366.72
2022-10-12T00:43:34.246Z,102364.16
2022-10-12T00:46:42.229Z,102367.91
2022-10-12T00:49:50.728Z,102367.22
2022-10-12T00:53:05.617Z,102364.78
2022-10-12T00:56:12.924Z,102372.88
2022-10-12T00:59:21.744Z,102364.19
2022-10-12T01:02:26.292Z,102366.94
2022-10-12T01:05:28.306Z,102366.25
2022-10-12T01:08:30.299Z,102363.75
2022-10-12T01:11:31.864Z,102371.88
2022-10-12T01:14:33.923Z,102357.97
2022-10-12T01:18:06.400Z,102365.22
2022-10-12T01:21:19.129Z,102366.38
2022-10-12T01:24:37.542Z,102358.75
2022-10-12T01:27:46.423Z,102352.81
2022-10-12T01:30:56.004Z,102359.25
2022-10-12T01:34:06.680Z,102355.94
2022-10-12T01:37:43.661Z,102354.34
2022-10-12T01:40:57.017Z,102348.41
2022-10-12T01:43:58.553Z,102356.53
2022-10-12T01:47:00.061Z,102349.50
2022-10-12T01:50:04.422Z,102350.41
2022-10-12T01:53:18.213Z,102335.44
2022-10-12T01:56:28.512Z,102344.38
2022-10-12T01:59:51.299Z,102344.59
2022-10-12T02:02:52.988Z,102339.56
2022-10-12T02:06:04.500Z,102326.44
2022-10-12T02:09:14.790Z,102329.19
2022-10-12T02:12:20.992Z,102325.72
2022-10-12T02:15:25.947Z,102330.28
2022-10-12T02:18:29.493Z,102328.56
2022-10-12T02:21:33.121Z,102330.41
2022-10-12T02:24:38.731Z,102320.78
2022-10-12T02:27:45.729Z,102319.03
2022-10-12T02:31:10.092Z,102314.63
2022-10-12T02:34:29.957Z,102318.22
2022-10-12T02:37:43.968Z,102307.75
2022-10-12T02:40:55.192Z,102311.38
2022-10-12T02:44:00.742Z,102303.50
2022-10-12T02:47:04.982Z,102293.88
2022-10-12T02:50:08.631Z,102296.59
2022-10-12T02:53:10.364Z,102294.91
2022-10-12T02:56:14.505Z,102299.47
2022-10-12T02:59:18.055Z,102289.97
2022-10-12T03:02:19.637Z,102288.44
2022-10-12T03:05:21.479Z,102277.09
2022-10-12T03:08:23.045Z,102286.88
2022-10-12T03:11:24.885Z,102278.97
2022-10-12T03:14:27.507Z,102272.78
2022-10-12T03:17:29.025Z,102284.31
2022-10-12T03:20:30.672Z,102280.84
2022-10-12T03:23:32.280Z,102279.97
2022-10-12T03:26:34.425Z,102280.88
2022-10-12T03:29:35.951Z,102288.88
2022-10-12T03:32:38.221Z,102285.41
2022-10-12T03:35:39.802Z,102285.50
2022-10-12T03:38:41.316Z,102279.38
2022-10-12T03:41:42.837Z,102282.06
2022-10-12T03:44:44.379Z,102275.94
2022-10-12T03:47:45.894Z,102273.34
2022-10-12T03:50:52.573Z,102280.50
2022-10-12T03:53:54.164Z,102282.38
2022-10-12T03:56:55.685Z,102269.25
2022-10-12T03:59:57.208Z,102278.16
2022-10-12T04:02:58.808Z,102285.34
2022-10-12T04:06:00.386Z,102281.13
2022-10-12T04:09:01.908Z,102279.69
2022-10-12T04:12:03.450Z,102284.28
2022-10-12T04:15:05.477Z,102281.66
2022-10-12T04:18:07.292Z,102272.00
2022-10-12T04:21:14.995Z,102281.69
2022-10-12T04:24:16.661Z,102272.00
2022-10-12T04:27:18.364Z,102271.13
2022-10-12T04:30:20.025Z,102276.47
2022-10-12T04:33:21.596Z,102272.97
2022-10-12T04:36:26.857Z,102271.38
2022-10-12T04:39:28.728Z,102267.97
2022-10-12T04:42:30.283Z,102268.00
2022-10-12T04:45:31.839Z,102274.16
2022-10-12T04:48:33.454Z,102268.91
2022-10-12T04:51:34.962Z,102282.16
2022-10-12T04:54:36.474Z,102272.47
2022-10-12T04:57:38.586Z,102267.22
2022-10-12T05:00:40.325Z,102284.88
2022-10-12T05:03:42.316Z,102266.44
2022-10-12T05:06:43.923Z,102275.34
2022-10-12T05:09:45.442Z,102276.44
2022-10-12T05:12:47.075Z,102274.06
2022-10-12T05:15:48.592Z,102275.13
2022-10-12T05:18:50.179Z,102272.66
2022-10-12T05:21:53.393Z,102270.09
2022-10-12T05:24:54.916Z,102268.56
2022-10-12T05:27:56.618Z,102275.72
2022-10-12T05:30:58.216Z,102273.13
2022-10-12T05:33:59.734Z,102274.06
2022-10-12T05:37:01.584Z,102267.94
2022-10-12T05:40:04.139Z,102273.19
2022-10-12T05:43:05.798Z,102267.91
2022-10-12T05:46:09.095Z,102265.38
2022-10-12T05:49:13.882Z,102271.63
2022-10-12T05:52:15.392Z,102266.38
2022-10-12T05:55:16.991Z,102268.09
2022-10-12T05:58:18.539Z,102272.50
2022-10-12T06:01:20.098Z,102271.56
2022-10-12T06:04:21.595Z,102263.69
2022-10-12T06:07:23.128Z,102268.16
2022-10-12T06:10:29.731Z,102260.34
2022-10-12T06:13:31.818Z,102265.69
2022-10-12T06:16:33.616Z,102264.03
2022-10-12T06:19:36.257Z,102270.31
2022-10-12T06:22:38.101Z,102266.84
2022-10-12T06:25:39.886Z,102265.19
2022-10-12T06:28:41.518Z,102261.69
2022-10-12T06:31:45.553Z,102267.84
2022-10-12T06:34:50.585Z,102263.44
2022-10-12T06:37:52.776Z,102270.47
2022-10-12T06:40:54.415Z,102261.69
2022-10-12T06:43:55.933Z,102261.63
2022-10-12T06:46:57.476Z,102263.25
2022-10-12T06:49:59.104Z,102271.03
2022-10-12T06:53:00.764Z,102268.28
2022-10-12T06:56:07.062Z,102278.75
2022-10-12T06:59:08.649Z,102281.28
2022-10-12T07:02:11.448Z,102279.34
2022-10-12T07:05:13.026Z,102272.13
2022-10-12T07:08:14.664Z,102277.19
2022-10-12T07:11:16.343Z,102273.50
2022-10-12T07:14:18.076Z,102268.88
2022-10-12T07:17:19.635Z,102277.44
2022-10-12T07:20:21.947Z,102270.13
2022-10-12T07:23:23.460Z,102261.09
2022-10-12T07:26:25.096Z,102267.94
2022-10-12T07:29:26.617Z,102269.44
2022-10-12T07:32:28.214Z,102263.09
2022-10-12T07:35:29.809Z,102262.06
2022-10-12T07:38:31.888Z,102267.09
2022-10-12T07:41:33.434Z,102269.50
2022-10-12T07:44:35.040Z,102278.13
2022-10-12T07:47:36.758Z,102271.69
2022-10-12T07:50:38.613Z,102278.56
2022-10-12T07:53:40.417Z,102274.81
2022-10-12T07:56:42.158Z,102272.78
2022-10-12T07:59:43.737Z,102283.13
2022-10-12T08:02:45.281Z,102280.19
2022-10-12T08:05:46.881Z,102279.97
2022-10-12T08:08:49.156Z,102287.59
2022-10-12T08:11:50.709Z,102279.41
2022-10-12T08:14:52.252Z,102284.41
2022-10-12T08:17:53.805Z,102285.00
2022-10-12T08:20:55.353Z,102278.44
2022-10-12T08:23:56.855Z,102283.34
2022-10-12T08:27:01.366Z,102281.22
2022-10-12T08:30:04.786Z,102282.66
2022-10-12T08:33:10.244Z,102286.72
2022-10-12T08:36:13.332Z,102282.84
2022-10-12T08:39:17.023Z,102286.03
2022-10-12T08:42:21.343Z,102279.47
2022-10-12T08:45:33.825Z,102280.81
2022-10-12T08:48:41.180Z,102284.84
2022-10-12T08:51:53.765Z,102280.97
2022-10-12T08:55:00.853Z,102269.03
2022-10-12T08:58:03.057Z,102257.06
2022-10-12T09:01:30.995Z,102258.28
2022-10-12T09:04:44.788Z,102260.41
2022-10-12T09:07:55.572Z,102264.41
2022-10-12T09:11:24.043Z,102263.53
2022-10-12T09:14:37.017Z,102256.75
2022-10-12T09:17:55.827Z,102256.25
2022-10-12T09:20:59.445Z,102259.38
2022-10-12T09:24:03.739Z,102251.00
2022-10-12T09:27:17.122Z,102251.41
2022-10-12T09:30:20.700Z,102244.88
2022-10-12T09:33:28.573Z,102247.13
2022-10-12T09:36:35.101Z,102250.25
2022-10-12T09:39:37.941Z,102246.34
2022-10-12T09:42:39.505Z,102236.97
2022-10-12T09:45:41.883Z,102249.78
2022-10-12T09:48:57.582Z,102240.25
2022-10-12T09:52:00.402Z,102244.03
2022-10-12T09:58:30.024Z,102243.81
2022-10-12T10:01:34.006Z,102239.44
2022-10-12T10:04:36.132Z,102240.53
2022-10-12T10:07:37.688Z,102239.13
2022-10-12T10:10:48.680Z,102242.84
2022-10-12T10:13:53.168Z,102230.81
2022-10-12T10:16:54.838Z,102222.25
2022-10-12T10:19:58.198Z,102226.78
2022-10-12T10:23:02.529Z,102224.34
2022-10-12T10:26:10.995Z,102223.06
2022-10-12T10:29:32.622Z,102216.59
2022-10-12T10:32:34.215Z,102214.63
2022-10-12T10:35:35.874Z,102218.53
2022-10-12T10:39:07.477Z,102214.97
2022-10-12T10:42:19.646Z,102204.88
2022-10-12T10:45:31.767Z,102202.25
2022-10-12T10:48:56.497Z,102202.31
2022-10-12T10:52:00.251Z,102205.72
2022-10-12T10:55:10.717Z,102206.09
2022-10-12T10:58:34.285Z,102205.63
2022-10-12T11:01:54.306Z,102202.00
2022-10-12T11:05:20.485Z,102205.91
2022-10-12T11:08:30.116Z,102197.75
2022-10-12T11:11:36.275Z,102188.09
2022-10-12T11:14:45.766Z,102192.38
2022-10-12T11:17:50.532Z,102185.47
2022-10-12T11:20:56.706Z,102179.81
2022-10-12T11:24:32.526Z,102177.41
2022-10-12T11:27:39.926Z,102177.72
2022-10-12T11:30:50.584Z,102164.97
2022-10-12T11:33:54.518Z,102168.31
2022-10-12T11:37:18.182Z,102168.13
2022-10-12T11:40:36.025Z,102155.38
2022-10-12T11:44:01.501Z,102149.44
2022-10-12T11:47:32.048Z,102140.84
2022-10-12T11:50:37.729Z,102134.72
2022-10-12T11:54:08.905Z,102137.59
2022-10-12T11:57:15.070Z,102134.03
2022-10-12T12:00:24.049Z,102127.91
2022-10-12T12:03:34.734Z,102125.88
2022-10-12T12:06:45.052Z,102121.06
2022-10-12T12:09:50.519Z,102124.88
2022-10-12T12:13:14.956Z,102112.16
2022-10-12T12:16:16.649Z,102111.34
2022-10-12T12:19:39.243Z,102110.63
2022-10-12T12:22:52.303Z,102115.28
2022-10-12T12:26:16.455Z,102109.91
2022-10-12T12:29:27.962Z,102102.38
2022-10-12T12:32:49.737Z,102109.22
2022-10-12T12:36:04.045Z,102092.34
2022-10-12T12:39:20.394Z,102087.84
2022-10-12T12:42:24.719Z,102088.75
2022-10-12T12:45:32.477Z,102073.19
2022-10-12T12:48:39.914Z,102080.69
2022-10-12T12:51:43.573Z,102077.59
2022-10-12T12:55:11.200Z,102078.03
2022-10-12T12:58:37.513Z,102069.31
2022-10-12T13:02:11.089Z,102072.97
2022-10-12T13:05:33.870Z,102065.78
2022-10-12T13:08:43.400Z,102067.63
2022-10-12T13:12:10.178Z,102063.09
2022-10-12T13:15:17.642Z,102066.22
2022-10-12T13:18:46.272Z,102065.31
2022-10-12T13:21:51.629Z,102067.38
2022-10-12T13:24:59.088Z,102059.31
2022-10-12T13:28:04.295Z,102064.84
2022-10-12T13:31:18.266Z,102054.03
2022-10-12T13:34:25.029Z,102052.88
2022-10-12T13:37:32.351Z,102046.31
2022-10-12T13:40:38.022Z,102041.47
2022-10-12T13:43:50.156Z,102028.50
2022-10-12T13:46:57.870Z,102024.75
2022-10-12T13:49:59.831Z,102032.69
2022-10-12T13:53:01.404Z,102021.06
2022-10-12T13:56:14.362Z,102028.19
2022-10-12T13:59:22.197Z,102016.78
2022-10-12T14:02:26.504Z,102013.69
2022-10-12T14:05:32.931Z,102005.94
2022-10-12T14:08:35.512Z,102003.47
2022-10-12T14:11:38.096Z,102000.13
2022-10-12T14:14:43.128Z,101990.66
2022-10-12T14:17:46.880Z,101989.59
2022-10-12T14:20:48.569Z,101993.88
2022-10-12T14:23:55.846Z,101983.56
2022-10-12T14:27:02.590Z,101978.19
2022-10-12T14:30:26.221Z,101969.41
2022-10-12T14:33:28.087Z,101962.28
2022-10-12T14:36:29.663Z,101966.72
2022-10-12T14:39:31.252Z,101964.03
2022-10-12T14:42:36.528Z,101963.03
2022-10-12T14:45:38.471Z,101964.13
2022-10-12T14:48:40.003Z,101962.75
2022-10-12T14:51:41.544Z,101961.44
2022-10-12T14:54:43.360Z,101953.69
2022-10-12T14:57:45.629Z,101954.03
2022-10-12T15:00:47.372Z,101950.59
2022-10-12T15:03:48.993Z,101956.81
2022-10-12T15:06:51.181Z,101957.66
2022-10-12T15:09:53.674Z,101956.91
2022-10-12T15:12:55.315Z,101952.53
2022-10-12T15:15:57.603Z,101945.22
2022-10-12T15:18:59.451Z,101935.56
2022-10-12T15:22:01.031Z,101932.13
2022-10-12T15:25:11.832Z,101919.03
2022-10-12T15:28:13.492Z,101910.22
2022-10-12T15:31:18.048Z,101903.34
2022-10-12T15:34:20.356Z,101897.66
2022-10-12T15:37:21.868Z,101901.53
2022-10-12T15:40:24.235Z,101901.63
2022-10-12T15:43:26.551Z,101889.19
2022-10-12T15:46:28.099Z,101896.56
2022-10-12T15:49:29.626Z,101894.00
2022-10-12T15:52:31.169Z,101893.06
2022-10-12T15:55:33.494Z,101897.13
2022-10-12T15:58:35.580Z,101900.00
2022-10-12T16:01:38.243Z,101899.50
2022-10-12T16:04:40.022Z,101913.41
2022-10-12T16:07:41.574Z,101909.53
2022-10-12T16:10:43.232Z,101903.97
2022-10-12T16:13:51.029Z,101909.09
2022-10-12T16:16:55.578Z,101903.81
2022-10-12T16:19:57.209Z,101897.47
2022-10-12T16:23:01.071Z,101888.69
2022-10-12T16:26:06.040Z,101894.09
2022-10-12T16:29:07.585Z,101901.88
2022-10-12T16:32:09.090Z,101890.03
2022-10-12T16:35:11.613Z,101894.22
2022-10-12T16:38:14.856Z,101887.72
2022-10-12T16:41:17.173Z,101885.91
2022-10-12T16:44:18.669Z,101886.66
2022-10-12T16:47:20.231Z,101889.16
2022-10-12T16:50:24.098Z,101889.72
2022-10-12T16:53:25.944Z,101894.13
2022-10-12T16:56:27.519Z,101891.31
2022-10-12T16:59:29.116Z,101896.28
2022-10-12T17:02:30.630Z,101891.50
2022-10-12T17:05:32.207Z,101894.72
2022-10-12T17:08:34.816Z,101888.94
2022-10-12T17:11:38.117Z,101896.47
2022-10-12T17:14:39.595Z,101887.06
2022-10-12T17:17:41.367Z,101892.00
2022-10-12T17:20:42.885Z,101898.56
2022-10-12T17:23:44.443Z,101892.81
2022-10-12T17:26:47.127Z,101896.69
2022-10-12T17:29:48.710Z,101900.66
2022-10-12T17:32:50.264Z,101902.88
2022-10-12T17:35:51.801Z,101905.94
2022-10-12T17:38:58.048Z,101907.22
2022-10-12T17:41:59.736Z,101900.50
2022-10-12T17:45:01.311Z,101918.66
2022-10-12T17:48:02.834Z,101908.50
2022-10-12T17:51:09.687Z,101899.97
2022-10-12T17:54:11.196Z,101902.16
2022-10-12T17:57:12.781Z,101905.09
2022-10-12T18:00:14.831Z,101904.53
2022-10-12T18:03:16.452Z,101901.19
2022-10-12T18:06:21.339Z,101898.69
2022-10-12T18:09:22.923Z,101906.84
2022-10-12T18:12:24.456Z,101899.88
2022-10-12T18:15:26.068Z,101902.69
2022-10-12T18:18:28.016Z,101889.47
2022-10-12T18:21:31.440Z,101895.81
2022-10-12T18:24:32.989Z,101900.38
2022-10-12T18:27:34.553Z,101893.41
2022-10-12T18:30:37.424Z,101887.28
2022-10-12T18:33:38.934Z,101892.06
2022-10-12T18:36:42.838Z,101894.28
2022-10-12T18:39:44.563Z,101895.38
2022-10-12T18:42:46.129Z,101899.94
2022-10-12T18:45:47.680Z,101897.44
2022-10-12T18:48:49.447Z,101889.78
2022-10-12T18:51:52.726Z,101885.78
2022-10-12T18:54:54.265Z,101873.84
2022-10-12T18:57:56.009Z,101890.09
2022-10-12T19:00:57.661Z,101881.38
2022-10-12T19:04:00.902Z,101870.91
2022-10-12T19:07:02.980Z,101868.69
2022-10-12T19:10:07.130Z,101871.66
2022-10-12T19:13:08.735Z,101867.56
2022-10-12T19:16:13.827Z,101866.84
2022-10-12T19:19:21.113Z,101859.09
2022-10-12T19:22:23.171Z,101854.28
2022-10-12T19:25:24.709Z,101856.19
2022-10-12T19:28:26.371Z,101850.06
2022-10-12T19:31:34.353Z,101845.75
2022-10-12T19:34:36.028Z,101845.03
2022-10-12T19:37:37.532Z,101827.75
2022-10-12T19:40:39.072Z,101834.44
2022-10-12T19:43:43.017Z,101828.31
2022-10-12T19:50:01.654Z,101823.09
2022-10-12T19:53:03.274Z,101826.75
2022-10-12T19:56:08.224Z,101827.91
2022-10-12T19:59:09.981Z,101827.25
2022-10-12T20:02:11.892Z,101829.88
2022-10-12T20:05:13.471Z,101822.81
2022-10-12T20:08:15.015Z,101829.91
2022-10-12T20:11:24.359Z,101822.91
2022-10-12T20:14:26.756Z,101823.13
2022-10-12T20:17:28.327Z,101805.06
2022-10-12T20:20:30.282Z,101812.94
2022-10-12T20:23:35.623Z,101814.16
2022-10-12T20:26:37.637Z,101804.34
2022-10-12T20:29:39.199Z,101799.03
2022-10-12T20:32:40.756Z,101800.00
2022-10-12T20:35:49.402Z,101791.44
2022-10-12T20:38:51.346Z,101788.25
2022-10-12T20:41:53.112Z,101790.25
2022-10-12T20:44:54.887Z,101791.03
2022-10-12T20:47:56.536Z,101791.69
2022-10-12T20:50:58.780Z,101798.66
2022-10-12T20:54:00.843Z,101799.41
2022-10-12T20:57:04.262Z,101796.59
2022-10-12T21:00:06.566Z,101791.16
2022-10-12T21:03:08.273Z,101790.38
2022-10-12T21:06:12.519Z,101796.00
2022-10-12T21:09:14.767Z,101789.97
2022-10-12T21:12:16.780Z,101792.91
2022-10-12T21:15:18.660Z,101782.56
2022-10-12T21:18:21.252Z,101790.84
2022-10-12T21:21:23.171Z,101779.56
2022-10-12T21:24:24.751Z,101775.28
2022-10-12T21:27:27.158Z,101776.38
2022-10-12T21:30:28.737Z,101782.47
2022-10-12T21:33:30.322Z,101783.22
2022-10-12T21:36:33.878Z,101785.66
2022-10-12T21:39:35.388Z,101782.84
2022-10-12T21:42:37.039Z,101782.91
2022-10-12T21:45:38.557Z,101781.47
2022-10-12T21:48:40.440Z,101782.56
2022-10-12T21:51:42.289Z,101780.59
2022-10-12T21:54:43.855Z,101779.47
2022-10-12T21:57:45.435Z,101784.56
2022-10-12T22:00:47.466Z,101791.66
2022-10-12T22:03:54.604Z,101787.22
2022-10-12T22:07:00.321Z,101784.88
2022-10-12T22:10:02.157Z,101786.69
2022-10-12T22:13:03.683Z,101775.94
2022-10-12T22:16:08.133Z,101772.06
2022-10-12T22:19:14.388Z,101768.84
2022-10-12T22:22:16.341Z,101765.41
2022-10-12T22:25:18.157Z,101755.78
2022-10-12T22:28:19.671Z,101748.00
2022-10-12T22:31:22.881Z,101742.75
2022-10-12T22:34:24.480Z,101745.53
2022-10-12T22:37:26.050Z,101745.53
2022-10-12T22:40:27.589Z,101742.75
2022-10-12T22:43:30.806Z,101735.75
2022-10-12T22:46:32.373Z,101731.34
2022-10-12T22:49:33.952Z,101735.78
2022-10-12T22:52:35.443Z,101721.63
2022-10-12T22:55:36.965Z,101723.47
2022-10-12T22:58:38.737Z,101722.59
2022-10-12T23:01:40.632Z,101716.50
2022-10-12T23:04:42.418Z,101724.47
2022-10-12T23:07:43.933Z,101733.34
2022-10-12T23:10:45.489Z,101740.44
2022-10-12T23:13:48.143Z,101735.28
2022-10-12T23:16:49.897Z,101741.63
2022-10-12T23:19:51.555Z,101729.38
2022-10-12T23:22:53.075Z,101727.72
2022-10-12T23:26:31.787Z,101729.69
2022-10-12T23:29:33.409Z,101723.72
2022-10-12T23:32:34.913Z,101719.41
2022-10-12T23:35:36.475Z,101714.22
2022-10-12T23:38:39.586Z,101717.09
2022-10-12T23:41:41.200Z,101705.72
2022-10-12T23:44:42.726Z,101712.16
2022-10-12T23:47:44.267Z,101706.19
2022-10-12T23:50:47.050Z,101702.75
2022-10-12T23:53:48.599Z,101702.84
2022-10-12T23:56:50.179Z,101707.41
2022-10-12T23:59:51.739Z,101703.97
